Time;durP1;ratioP1;P1;durP2;ratioP2;P2;SDS_P1;SDS_P2;PMS_P1;PMS_P2;Temp;Humidity;BMP_temperature;BMP_pressure;BME280_temperature;BME280_humidity;BME280_pressure;Samples;Min_cycle;Max_cycle;Signal;HPM_P1;HPM_P2
2022/03/27 00:00:05;;;;;;;110.20;53.10;;;;;;;;;;5106103;28;20219;-87
2022/03/27 00:02:32;;;;;;;112.15;52.50;;;;;;;;;;5121540;28;20198;-87
2022/03/27 00:04:58;;;;;;;113.85;53.15;;;;;;;;;;5114530;28;20195;-87
2022/03/27 00:07:26;;;;;;;121.70;55.90;;;;;;;;;;5106503;28;20236;-86
2022/03/27 00:09:53;;;;;;;114.35;54.15;;;;;;;;;;5106097;28;20255;-86
2022/03/27 00:12:19;;;;;;;114.05;53.60;;;;;;;;;;5106401;28;20198;-87
2022/03/27 00:14:46;;;;;;;112.25;53.78;;;;;;;;;;5105549;28;20226;-87
2022/03/27 00:17:12;;;;;;;119.05;55.08;;;;;;;;;;5105637;28;20203;-86
2022/03/27 00:19:39;;;;;;;116.95;56.78;;;;;;;;;;5113272;28;20237;-86
2022/03/27 00:22:05;;;;;;;108.60;53.05;;;;;;;;;;5105323;28;20198;-86
2022/03/27 00:24:33;;;;;;;114.30;54.97;;;;;;;;;;5105663;28;20221;-86
2022/03/27 00:27:00;;;;;;;114.32;55.60;;;;;;;;;;5105631;28;20195;-86
2022/03/27 00:29:26;;;;;;;111.97;53.03;;;;;;;;;;5105011;28;20198;-86
2022/03/27 00:31:53;;;;;;;115.70;55.00;;;;;;;;;;5105392;28;20198;-87
2022/03/27 00:34:21;;;;;;;116.25;53.97;;;;;;;;;;5103228;28;20229;-87
2022/03/27 00:36:48;;;;;;;117.25;53.75;;;;;;;;;;5122283;28;20209;-87
2022/03/27 00:39:14;;;;;;;114.45;54.92;;;;;;;;;;5121995;28;20322;-87
2022/03/27 00:41:43;;;;;;;109.72;53.33;;;;;;;;;;5105953;28;20194;-87
2022/03/27 00:44:10;;;;;;;113.30;53.20;;;;;;;;;;5105813;28;20191;-87
2022/03/27 00:46:36;;;;;;;108.85;51.85;;;;;;;;;;5105282;28;20262;-87
2022/03/27 00:49:03;;;;;;;110.65;53.50;;;;;;;;;;5104888;28;20276;-87
2022/03/27 00:51:29;;;;;;;119.65;54.15;;;;;;;;;;5104486;28;20194;-87
2022/03/27 00:53:56;;;;;;;117.65;52.95;;;;;;;;;;5121408;28;20697;-87
2022/03/27 00:56:22;;;;;;;112.07;53.50;;;;;;;;;;5104854;28;20226;-87
2022/03/27 00:58:50;;;;;;;116.85;54.50;;;;;;;;;;5104021;28;20288;-86
2022/03/27 01:01:17;;;;;;;111.75;54.00;;;;;;;;;;5103303;28;20227;-87
2022/03/27 01:03:47;;;;;;;116.32;53.88;;;;;;;;;;5103432;28;20202;-87
2022/03/27 01:06:18;;;;;;;111.32;54.28;;;;;;;;;;5102892;28;20217;-86
2022/03/27 01:11:29;;;;;;;110.97;53.65;;;;;;;;;;5102689;28;20205;-86
2022/03/27 01:13:57;;;;;;;112.05;54.15;;;;;;;;;;5104267;28;20199;-86
2022/03/27 01:16:37;;;;;;;119.45;53.85;;;;;;;;;;5103872;28;20195;-86
2022/03/27 01:19:03;;;;;;;116.57;55.10;;;;;;;;;;5102791;28;20198;-86
2022/03/27 01:21:31;;;;;;;113.63;54.00;;;;;;;;;;5102717;28;20229;-86
2022/03/27 01:23:58;;;;;;;111.55;53.53;;;;;;;;;;5103390;28;20195;-86
2022/03/27 01:26:24;;;;;;;117.57;54.33;;;;;;;;;;5104148;28;20923;-87
2022/03/27 01:28:51;;;;;;;114.55;54.25;;;;;;;;;;5124789;28;20218;-86
2022/03/27 01:31:18;;;;;;;112.22;53.30;;;;;;;;;;5105983;28;20253;-87
2022/03/27 01:33:44;;;;;;;110.35;53.00;;;;;;;;;;5104703;28;20248;-87
2022/03/27 01:36:11;;;;;;;108.75;53.42;;;;;;;;;;5104369;28;20248;-86
2022/03/27 01:38:39;;;;;;;112.10;53.40;;;;;;;;;;5103189;28;20195;-87
2022/03/27 01:41:05;;;;;;;110.93;52.17;;;;;;;;;;5102008;28;20219;-87
2022/03/27 01:43:31;;;;;;;117.35;54.13;;;;;;;;;;5103935;28;20229;-87
2022/03/27 01:45:58;;;;;;;116.15;54.35;;;;;;;;;;5108056;28;20199;-87
2022/03/27 01:48:25;;;;;;;112.85;53.92;;;;;;;;;;5102662;28;20199;-87
2022/03/27 01:50:58;;;;;;;111.53;52.78;;;;;;;;;;5102349;28;20918;-87
2022/03/27 01:53:24;;;;;;;115.00;53.70;;;;;;;;;;5103341;28;20203;-86
2022/03/27 01:55:52;;;;;;;110.80;52.70;;;;;;;;;;5103646;28;20199;-86
2022/03/27 01:58:18;;;;;;;110.55;53.63;;;;;;;;;;5103996;28;20231;-86
2022/03/27 02:00:45;;;;;;;111.97;52.97;;;;;;;;;;5104261;28;20253;-86
2022/03/27 02:03:12;;;;;;;116.07;53.58;;;;;;;;;;5102235;28;20199;-86
2022/03/27 02:05:38;;;;;;;108.47;52.80;;;;;;;;;;5102864;28;20228;-87
2022/03/27 02:08:05;;;;;;;109.07;51.28;;;;;;;;;;5103473;28;20228;-87
2022/03/27 02:10:31;;;;;;;110.40;53.47;;;;;;;;;;5103412;28;20195;-87
2022/03/27 02:12:59;;;;;;;109.47;52.28;;;;;;;;;;5104172;28;20230;-87
2022/03/27 02:15:26;;;;;;;115.90;54.20;;;;;;;;;;5103782;28;20199;-87
2022/03/27 02:17:52;;;;;;;112.85;53.47;;;;;;;;;;5111082;28;20220;-87
2022/03/27 02:20:19;;;;;;;108.82;52.58;;;;;;;;;;5115494;28;20214;-86
2022/03/27 02:22:45;;;;;;;113.93;52.78;;;;;;;;;;5103601;28;20199;-86
2022/03/27 02:25:11;;;;;;;112.65;51.97;;;;;;;;;;5103562;28;20187;-86
2022/03/27 02:27:38;;;;;;;109.55;51.90;;;;;;;;;;5103561;28;20195;-86
2022/03/27 02:30:07;;;;;;;109.70;51.65;;;;;;;;;;5104023;28;20183;-86
2022/03/27 02:32:33;;;;;;;109.38;53.10;;;;;;;;;;5103400;28;20317;-86
2022/03/27 02:35:00;;;;;;;105.28;50.40;;;;;;;;;;5115162;28;20203;-86
2022/03/27 02:37:26;;;;;;;114.53;53.22;;;;;;;;;;5103700;28;20203;-86
2022/03/27 02:39:53;;;;;;;109.85;52.80;;;;;;;;;;5103424;28;20218;-86
2022/03/27 02:42:20;;;;;;;103.15;50.00;;;;;;;;;;5103500;28;20198;-86
2022/03/27 02:44:46;;;;;;;118.63;54.08;;;;;;;;;;5102983;28;20226;-86
2022/03/27 02:47:14;;;;;;;113.72;52.33;;;;;;;;;;5102387;28;20190;-86
2022/03/27 02:49:40;;;;;;;111.53;52.45;;;;;;;;;;5101052;28;20207;-86
2022/03/27 02:52:07;;;;;;;106.88;51.45;;;;;;;;;;5121646;28;20216;-86
2022/03/27 02:54:34;;;;;;;112.07;50.55;;;;;;;;;;5124135;28;20198;-86
2022/03/27 02:57:01;;;;;;;114.40;52.13;;;;;;;;;;5103507;28;20280;-86
2022/03/27 02:59:28;;;;;;;109.72;52.17;;;;;;;;;;5101614;28;20270;-86
2022/03/27 03:01:54;;;;;;;105.50;51.25;;;;;;;;;;5101917;28;20226;-86
2022/03/27 03:04:22;;;;;;;101.45;49.90;;;;;;;;;;5103676;28;20199;-85
2022/03/27 03:06:49;;;;;;;104.05;50.38;;;;;;;;;;5103081;28;20194;-86
2022/03/27 03:09:16;;;;;;;111.55;51.03;;;;;;;;;;5118811;28;20661;-86
2022/03/27 03:11:44;;;;;;;103.40;49.63;;;;;;;;;;5106605;28;20194;-86
2022/03/27 03:14:11;;;;;;;111.72;52.47;;;;;;;;;;5103080;28;20659;-86
2022/03/27 03:16:38;;;;;;;107.10;50.75;;;;;;;;;;5102392;28;20262;-87
2022/03/27 03:19:05;;;;;;;107.03;51.22;;;;;;;;;;5102498;28;20198;-86
2022/03/27 03:21:33;;;;;;;109.10;49.80;;;;;;;;;;5102069;28;20217;-86
2022/03/27 03:23:59;;;;;;;109.30;52.83;;;;;;;;;;5107348;28;20190;-86
2022/03/27 03:26:26;;;;;;;105.22;50.53;;;;;;;;;;5096685;28;20853;-86
2022/03/27 03:28:52;;;;;;;108.20;50.85;;;;;;;;;;5080606;28;20663;-86
2022/03/27 03:31:19;;;;;;;106.72;52.00;;;;;;;;;;5092377;28;20607;-86
2022/03/27 03:33:45;;;;;;;113.85;51.25;;;;;;;;;;5101358;28;20649;-86
2022/03/27 03:36:12;;;;;;;109.35;52.67;;;;;;;;;;5101549;28;20191;-86
2022/03/27 03:38:40;;;;;;;106.40;51.25;;;;;;;;;;5100978;28;20248;-85
2022/03/27 03:41:06;;;;;;;108.43;51.53;;;;;;;;;;5107513;28;20290;-86
2022/03/27 03:43:33;;;;;;;108.45;50.45;;;;;;;;;;5122653;28;20223;-86
2022/03/27 03:45:59;;;;;;;111.60;51.45;;;;;;;;;;5113980;28;20655;-86
2022/03/27 03:48:26;;;;;;;108.60;52.80;;;;;;;;;;5100556;28;20608;-86
2022/03/27 03:50:53;;;;;;;110.60;52.55;;;;;;;;;;5100200;28;20628;-86
2022/03/27 03:53:19;;;;;;;114.10;52.60;;;;;;;;;;5101193;28;20661;-86
2022/03/27 03:55:47;;;;;;;112.63;50.83;;;;;;;;;;5101149;28;20191;-86
2022/03/27 03:58:13;;;;;;;104.97;50.40;;;;;;;;;;5116478;28;20230;-86
2022/03/27 04:00:41;;;;;;;106.00;49.08;;;;;;;;;;5118006;28;20214;-86
2022/03/27 04:03:08;;;;;;;106.15;50.05;;;;;;;;;;5102811;28;20202;-86
2022/03/27 04:05:35;;;;;;;110.43;50.28;;;;;;;;;;5104909;28;20711;-86
2022/03/27 04:08:01;;;;;;;105.68;51.35;;;;;;;;;;5105251;28;20221;-86
2022/03/27 04:10:28;;;;;;;109.35;52.25;;;;;;;;;;5104762;28;20203;-86
2022/03/27 04:12:56;;;;;;;113.95;51.85;;;;;;;;;;5108137;28;20194;-86
2022/03/27 04:15:22;;;;;;;107.63;51.00;;;;;;;;;;5124113;28;20194;-86
2022/03/27 04:17:50;;;;;;;109.97;51.97;;;;;;;;;;5105970;28;20798;-86
2022/03/27 04:20:17;;;;;;;109.78;51.42;;;;;;;;;;5105988;28;20222;-86
2022/03/27 04:22:45;;;;;;;105.05;51.15;;;;;;;;;;5105491;28;20285;-85
2022/03/27 04:25:11;;;;;;;111.88;53.38;;;;;;;;;;5104785;28;20224;-86
2022/03/27 04:27:38;;;;;;;103.25;49.67;;;;;;;;;;5104664;28;20252;-86
2022/03/27 04:30:08;;;;;;;111.07;51.63;;;;;;;;;;5104266;28;20202;-85
2022/03/27 04:32:34;;;;;;;105.20;50.65;;;;;;;;;;5097535;28;20669;-85
2022/03/27 04:35:01;;;;;;;105.18;51.55;;;;;;;;;;5083384;28;20207;-85
2022/03/27 04:37:28;;;;;;;109.25;50.63;;;;;;;;;;5102648;28;20195;-85
2022/03/27 04:39:59;;;;;;;112.25;51.67;;;;;;;;;;5105274;28;20674;-85
2022/03/27 04:42:26;;;;;;;108.15;53.00;;;;;;;;;;5104600;28;20222;-86
2022/03/27 04:44:53;;;;;;;105.40;50.45;;;;;;;;;;5104704;28;20199;-86
2022/03/27 04:47:21;;;;;;;104.05;51.63;;;;;;;;;;5110676;28;20206;-85
2022/03/27 04:49:47;;;;;;;107.68;51.85;;;;;;;;;;5123536;28;20227;-86
2022/03/27 04:52:14;;;;;;;112.85;53.70;;;;;;;;;;5108024;28;20190;-86
2022/03/27 04:54:40;;;;;;;105.35;51.53;;;;;;;;;;5103652;28;20925;-86
2022/03/27 04:57:07;;;;;;;103.30;50.22;;;;;;;;;;5103717;28;20640;-86
2022/03/27 04:59:34;;;;;;;112.80;53.10;;;;;;;;;;5105394;28;20199;-85
2022/03/27 05:02:01;;;;;;;105.57;50.05;;;;;;;;;;5107024;28;20222;-86
2022/03/27 05:04:29;;;;;;;108.97;49.45;;;;;;;;;;5126242;28;20217;-86
2022/03/27 05:06:55;;;;;;;114.20;50.70;;;;;;;;;;5113589;28;20217;-86
2022/03/27 05:09:22;;;;;;;110.32;52.60;;;;;;;;;;5104823;28;20609;-87
2022/03/27 05:11:48;;;;;;;106.70;50.60;;;;;;;;;;5104735;28;20211;-87
2022/03/27 05:14:15;;;;;;;105.40;51.72;;;;;;;;;;5104430;28;20198;-87
2022/03/27 05:16:41;;;;;;;119.22;53.55;;;;;;;;;;5103927;28;20194;-87
2022/03/27 05:19:08;;;;;;;110.95;53.30;;;;;;;;;;5106597;28;20202;-86
2022/03/27 05:21:36;;;;;;;116.60;55.42;;;;;;;;;;5116776;28;20218;-87
2022/03/27 05:24:03;;;;;;;112.78;53.67;;;;;;;;;;5104391;28;20206;-86
2022/03/27 05:26:30;;;;;;;118.88;56.42;;;;;;;;;;5104126;28;20194;-86
2022/03/27 05:28:56;;;;;;;124.50;57.65;;;;;;;;;;5103662;28;20195;-86
2022/03/27 05:31:22;;;;;;;116.30;56.03;;;;;;;;;;5102925;28;20195;-86
2022/03/27 05:33:49;;;;;;;117.28;53.78;;;;;;;;;;5104148;28;20203;-87
2022/03/27 05:36:15;;;;;;;117.85;56.50;;;;;;;;;;5110990;28;20231;-87
2022/03/27 05:38:43;;;;;;;114.22;54.45;;;;;;;;;;5104158;28;20198;-87
2022/03/27 05:41:10;;;;;;;120.57;56.47;;;;;;;;;;5103611;28;20227;-86
2022/03/27 05:43:37;;;;;;;124.35;56.58;;;;;;;;;;5103890;28;20263;-86
2022/03/27 05:46:03;;;;;;;125.75;56.83;;;;;;;;;;5103119;28;20220;-86
2022/03/27 05:48:30;;;;;;;113.70;56.13;;;;;;;;;;5104239;28;20198;-86
2022/03/27 05:50:57;;;;;;;121.32;58.58;;;;;;;;;;5103822;28;20232;-86
2022/03/27 05:53:24;;;;;;;117.28;55.10;;;;;;;;;;5113804;28;20262;-87
2022/03/27 05:55:52;;;;;;;119.20;55.80;;;;;;;;;;5123181;28;20241;-87
2022/03/27 05:58:18;;;;;;;120.25;56.47;;;;;;;;;;5103004;28;20230;-87
2022/03/27 06:00:44;;;;;;;122.82;55.60;;;;;;;;;;5103602;28;20650;-89
2022/03/27 06:03:11;;;;;;;117.45;55.75;;;;;;;;;;5103686;28;20543;-87
2022/03/27 06:05:37;;;;;;;118.50;55.17;;;;;;;;;;5104132;28;20207;-87
2022/03/27 06:08:04;;;;;;;114.47;55.70;;;;;;;;;;5103553;28;20195;-87
2022/03/27 06:10:32;;;;;;;113.15;55.40;;;;;;;;;;5107514;28;20185;-87
2022/03/27 06:13:00;;;;;;;113.60;55.05;;;;;;;;;;5107420;28;20199;-87
2022/03/27 06:15:27;;;;;;;123.13;56.83;;;;;;;;;;5104407;28;20222;-88
2022/03/27 06:17:54;;;;;;;118.22;55.92;;;;;;;;;;5103254;28;20277;-87
2022/03/27 06:20:21;;;;;;;121.60;56.27;;;;;;;;;;5103671;28;20199;-87
2022/03/27 06:22:48;;;;;;;118.57;56.15;;;;;;;;;;5102950;28;20484;-87
2022/03/27 06:25:16;;;;;;;123.80;58.55;;;;;;;;;;5102655;28;20260;-87
2022/03/27 06:27:42;;;;;;;116.40;56.42;;;;;;;;;;5110247;28;20224;-88
2022/03/27 06:30:12;;;;;;;124.40;57.10;;;;;;;;;;5123572;28;20202;-88
2022/03/27 06:32:38;;;;;;;115.60;55.35;;;;;;;;;;5110493;28;20194;-88
2022/03/27 06:35:06;;;;;;;122.07;56.57;;;;;;;;;;5102656;28;20664;-88
2022/03/27 06:37:32;;;;;;;123.20;56.77;;;;;;;;;;5103051;28;20452;-88
2022/03/27 06:39:59;;;;;;;124.95;58.45;;;;;;;;;;5103036;28;21316;-88
2022/03/27 06:42:26;;;;;;;133.63;56.53;;;;;;;;;;5102908;28;20635;-88
2022/03/27 06:44:54;;;;;;;118.93;57.20;;;;;;;;;;5112806;28;20198;-90
2022/03/27 06:47:23;;;;;;;125.13;57.63;;;;;;;;;;5113360;28;20445;-89
2022/03/27 06:49:50;;;;;;;120.70;56.93;;;;;;;;;;5102137;28;20199;-89
2022/03/27 06:52:17;;;;;;;128.73;57.63;;;;;;;;;;5101794;28;20436;-88
2022/03/27 06:54:44;;;;;;;118.27;58.07;;;;;;;;;;5099349;28;20456;-88
2022/03/27 06:57:11;;;;;;;119.10;56.93;;;;;;;;;;5090131;28;20488;-89
2022/03/27 07:05:09;;;;;;;121.67;57.50;;;;;;;;;;5102308;28;20431;-89
2022/03/27 07:07:36;;;;;;;132.77;61.33;;;;;;;;;;5100873;28;20433;-88
2022/03/27 07:10:02;;;;;;;128.33;60.90;;;;;;;;;;5101233;28;20445;-89
2022/03/27 07:12:29;;;;;;;131.20;59.17;;;;;;;;;;5102152;28;21039;-88
2022/03/27 07:14:55;;;;;;;119.80;57.50;;;;;;;;;;5102626;28;20522;-89
2022/03/27 07:17:23;;;;;;;127.33;59.77;;;;;;;;;;5101538;28;20456;-89
2022/03/27 07:19:50;;;;;;;132.80;60.57;;;;;;;;;;5114885;28;20455;-91
2022/03/27 07:22:16;;;;;;;126.70;60.00;;;;;;;;;;5101816;28;20512;-89
2022/03/27 07:24:43;;;;;;;121.07;59.37;;;;;;;;;;5100134;28;20850;-88
2022/03/27 07:27:09;;;;;;;131.80;61.57;;;;;;;;;;5096624;28;20536;-89
2022/03/27 07:29:37;;;;;;;125.27;60.27;;;;;;;;;;5100896;28;20449;-90
2022/03/27 07:32:04;;;;;;;133.17;61.10;;;;;;;;;;5100315;28;20457;-89
2022/03/27 07:34:32;;;;;;;133.27;59.70;;;;;;;;;;5101201;28;20470;-89
2022/03/27 07:36:58;;;;;;;122.37;57.73;;;;;;;;;;5100481;28;20444;-88
2022/03/27 07:39:25;;;;;;;126.97;59.87;;;;;;;;;;5100368;28;20441;-89
2022/03/27 07:41:51;;;;;;;125.40;59.03;;;;;;;;;;5102875;28;20484;-89
2022/03/27 07:44:18;;;;;;;133.37;62.53;;;;;;;;;;5102973;28;20436;-88
2022/03/27 07:46:46;;;;;;;125.60;59.80;;;;;;;;;;5122968;28;20451;-90
2022/03/27 07:49:13;;;;;;;124.57;59.40;;;;;;;;;;5105054;28;20444;-88
2022/03/27 07:51:41;;;;;;;127.07;59.73;;;;;;;;;;5104757;28;20449;-88
2022/03/27 07:54:07;;;;;;;126.20;60.80;;;;;;;;;;5082596;28;20445;-89
2022/03/27 07:56:34;;;;;;;123.77;59.97;;;;;;;;;;5081798;28;20481;-88
2022/03/27 07:59:01;;;;;;;126.70;59.27;;;;;;;;;;5101980;28;20471;-89
2022/03/27 08:01:28;;;;;;;124.53;60.57;;;;;;;;;;5100955;28;20541;-88
2022/03/27 08:03:56;;;;;;;131.83;58.93;;;;;;;;;;5104639;28;20447;-90
2022/03/27 08:06:23;;;;;;;130.03;62.73;;;;;;;;;;5105453;28;20452;-91
2022/03/27 08:08:51;;;;;;;131.73;63.47;;;;;;;;;;5103448;28;20441;-88
2022/03/27 08:11:17;;;;;;;127.97;62.07;;;;;;;;;;5105273;28;20440;-90
2022/03/27 08:13:44;;;;;;;128.77;60.70;;;;;;;;;;5105459;28;20929;-91
2022/03/27 08:16:10;;;;;;;129.37;60.97;;;;;;;;;;5104856;28;20449;-88
2022/03/27 08:18:37;;;;;;;131.30;62.30;;;;;;;;;;5110852;28;20497;-91
2022/03/27 08:21:03;;;;;;;128.03;61.57;;;;;;;;;;5104987;28;20448;-90
2022/03/27 08:23:29;;;;;;;130.10;60.97;;;;;;;;;;5102327;28;20514;-91
2022/03/27 08:28:43;;;;;;;127.67;60.10;;;;;;;;;;5103045;28;20530;-90
2022/03/27 08:31:09;;;;;;;133.27;63.83;;;;;;;;;;5103489;28;20445;-91
2022/03/27 08:33:36;;;;;;;124.83;60.83;;;;;;;;;;5104833;28;20517;-91
2022/03/27 08:36:03;;;;;;;125.77;61.67;;;;;;;;;;5103207;28;20444;-95
2022/03/27 08:38:29;;;;;;;125.27;61.10;;;;;;;;;;5104497;28;20471;-95
2022/03/27 08:40:56;;;;;;;129.30;61.93;;;;;;;;;;5105357;28;20440;-93
2022/03/27 08:43:24;;;;;;;132.77;65.80;;;;;;;;;;5100809;28;20508;-95
2022/03/27 08:45:50;;;;;;;130.53;61.83;;;;;;;;;;5102825;28;20463;-94
2022/03/27 08:48:17;;;;;;;129.83;61.00;;;;;;;;;;5102531;28;20460;-93
2022/03/27 08:50:44;;;;;;;136.77;62.40;;;;;;;;;;5101948;28;20441;-92
2022/03/27 08:53:12;;;;;;;128.27;62.27;;;;;;;;;;5103095;28;20445;-94
2022/03/27 08:55:39;;;;;;;132.77;62.40;;;;;;;;;;5104680;28;20448;-95
2022/03/27 08:58:07;;;;;;;127.77;63.07;;;;;;;;;;5104553;28;20500;-94
2022/03/27 09:00:35;;;;;;;127.70;62.37;;;;;;;;;;5105733;28;20445;-93
2022/03/27 09:03:03;;;;;;;130.10;62.60;;;;;;;;;;5104809;28;20496;-92
2022/03/27 09:05:30;;;;;;;127.47;62.47;;;;;;;;;;5104156;28;20551;-93
2022/03/27 09:07:57;;;;;;;127.43;61.30;;;;;;;;;;5104590;28;20498;-93
2022/03/27 09:10:25;;;;;;;127.87;61.63;;;;;;;;;;5105276;28;20436;-95
2022/03/27 09:12:52;;;;;;;130.77;63.93;;;;;;;;;;5103567;28;20464;-93
2022/03/27 09:15:19;;;;;;;130.93;62.73;;;;;;;;;;5104906;28;20467;-94
2022/03/27 09:18:04;;;;;;;127.90;63.23;;;;;;;;;;5103857;28;20464;-94
2022/03/27 09:20:35;;;;;;;132.70;65.23;;;;;;;;;;5103210;28;20452;-93
2022/03/27 09:23:12;;;;;;;131.13;66.60;;;;;;;;;;5109441;28;20510;-92
2022/03/27 09:25:49;;;;;;;132.93;63.00;;;;;;;;;;5104326;28;20449;-93
2022/03/27 09:28:22;;;;;;;136.80;65.70;;;;;;;;;;5103507;28;20437;-94
2022/03/27 09:30:48;;;;;;;130.70;65.30;;;;;;;;;;5102895;28;20448;-92
2022/03/27 09:33:30;;;;;;;137.93;67.70;;;;;;;;;;5103543;28;20468;-91
2022/03/27 09:36:04;;;;;;;138.10;65.93;;;;;;;;;;5103737;28;20448;-92
2022/03/27 09:38:30;;;;;;;135.60;67.47;;;;;;;;;;5109116;28;20555;-91
2022/03/27 09:40:57;;;;;;;135.17;65.60;;;;;;;;;;5124905;28;20439;-90
2022/03/27 09:43:23;;;;;;;137.97;68.00;;;;;;;;;;5114968;28;20549;-89
2022/03/27 09:45:55;;;;;;;141.43;68.97;;;;;;;;;;5102165;28;20957;-91
2022/03/27 09:48:23;;;;;;;175.70;91.50;;;;;;;;;;5103191;28;20441;-91
2022/03/27 09:50:51;;;;;;;157.83;78.43;;;;;;;;;;5104783;28;20539;-92
2022/03/27 09:53:18;;;;;;;136.17;69.00;;;;;;;;;;5104349;28;20513;-94
2022/03/27 09:55:45;;;;;;;155.67;82.60;;;;;;;;;;5111914;28;20523;-96
2022/03/27 09:58:12;;;;;;;135.97;68.83;;;;;;;;;;5118293;28;20557;-95
2022/03/27 10:00:39;;;;;;;141.10;68.93;;;;;;;;;;5103470;28;20444;-89
2022/03/27 10:03:09;;;;;;;136.10;69.33;;;;;;;;;;5102121;28;20492;-90
2022/03/27 10:05:37;;;;;;;135.97;68.90;;;;;;;;;;5103836;28;20490;-89
2022/03/27 10:08:04;;;;;;;138.40;70.80;;;;;;;;;;5102761;28;20445;-92
2022/03/27 10:10:30;;;;;;;142.20;71.70;;;;;;;;;;5102456;28;20447;-90
2022/03/27 10:12:58;;;;;;;136.50;69.40;;;;;;;;;;5114612;28;20472;-91
2022/03/27 10:15:25;;;;;;;137.50;69.47;;;;;;;;;;5103447;28;20449;-90
2022/03/27 10:17:53;;;;;;;147.27;72.60;;;;;;;;;;5103105;28;20486;-92
2022/03/27 10:20:21;;;;;;;140.93;72.70;;;;;;;;;;5114922;28;20457;-92
2022/03/27 10:22:49;;;;;;;139.20;70.77;;;;;;;;;;5120264;28;20494;-89
2022/03/27 10:25:17;;;;;;;139.93;70.03;;;;;;;;;;5100427;28;20450;-89
2022/03/27 10:27:44;;;;;;;140.07;69.83;;;;;;;;;;5112034;28;20488;-89
2022/03/27 10:30:12;;;;;;;138.03;70.47;;;;;;;;;;5101900;28;20844;-88
2022/03/27 10:32:40;;;;;;;145.20;71.67;;;;;;;;;;5102853;28;20454;-89
2022/03/27 10:35:22;;;;;;;136.70;69.60;;;;;;;;;;5103191;28;20531;-89
2022/03/27 10:37:58;;;;;;;134.57;68.50;;;;;;;;;;5102550;28;20454;-91
2022/03/27 10:40:28;;;;;;;141.70;70.00;;;;;;;;;;5102994;28;20447;-89
2022/03/27 10:42:57;;;;;;;142.57;70.93;;;;;;;;;;5100890;28;20488;-89
2022/03/27 10:45:24;;;;;;;142.20;67.60;;;;;;;;;;5100557;28;20455;-89
2022/03/27 10:48:10;;;;;;;140.57;71.30;;;;;;;;;;5100491;28;20453;-91
2022/03/27 10:50:45;;;;;;;142.47;71.27;;;;;;;;;;5079356;28;20540;-90
2022/03/27 10:53:13;;;;;;;143.30;71.57;;;;;;;;;;5082111;28;20479;-94
2022/03/27 10:55:42;;;;;;;138.90;68.80;;;;;;;;;;5100311;28;20449;-90
2022/03/27 10:58:26;;;;;;;139.77;67.87;;;;;;;;;;5102844;28;20493;-88
2022/03/27 11:00:53;;;;;;;149.83;72.50;;;;;;;;;;5101647;28;20516;-91
2022/03/27 11:03:34;;;;;;;144.97;73.13;;;;;;;;;;5100045;28;20486;-93
2022/03/27 11:06:02;;;;;;;134.03;66.70;;;;;;;;;;5098424;28;20444;-90
2022/03/27 11:08:48;;;;;;;142.70;72.67;;;;;;;;;;5101411;28;20468;-90
2022/03/27 11:11:33;;;;;;;135.47;67.13;;;;;;;;;;5102082;28;20444;-86
2022/03/27 11:14:00;;;;;;;134.97;69.60;;;;;;;;;;5103653;28;20850;-86
2022/03/27 11:16:26;;;;;;;143.07;71.60;;;;;;;;;;5115029;28;20467;-88
2022/03/27 11:18:53;;;;;;;141.07;70.90;;;;;;;;;;5118963;28;20444;-88
2022/03/27 11:21:34;;;;;;;140.70;70.13;;;;;;;;;;5105589;28;20447;-86
2022/03/27 11:24:16;;;;;;;139.03;70.83;;;;;;;;;;5105196;28;20490;-90
2022/03/27 11:26:44;;;;;;;138.47;66.73;;;;;;;;;;5105211;28;20451;-92
2022/03/27 11:29:19;;;;;;;140.60;73.07;;;;;;;;;;5105064;28;20450;-87
2022/03/27 11:32:03;;;;;;;146.43;69.23;;;;;;;;;;5122711;28;20470;-91
2022/03/27 11:34:29;;;;;;;138.47;70.40;;;;;;;;;;5114992;28;20984;-89
2022/03/27 11:37:27;;;;;;;140.73;71.70;;;;;;;;;;5106271;28;20441;-89
2022/03/27 11:39:54;;;;;;;141.53;71.80;;;;;;;;;;5023317;28;20441;-87
2022/03/27 11:42:32;;;;;;;144.13;72.10;;;;;;;;;;5084881;28;20519;-89
2022/03/27 11:45:10;;;;;;;141.40;73.13;;;;;;;;;;5102343;28;20861;-91
2022/03/27 11:47:37;;;;;;;149.43;72.90;;;;;;;;;;5104806;28;20455;-90
2022/03/27 11:50:04;;;;;;;144.70;72.50;;;;;;;;;;5110198;28;20470;-91
2022/03/27 11:52:30;;;;;;;150.53;75.70;;;;;;;;;;5103516;28;20443;-90
2022/03/27 11:55:04;;;;;;;146.27;76.03;;;;;;;;;;5103513;28;20490;-89
2022/03/27 11:57:42;;;;;;;136.70;69.03;;;;;;;;;;5102386;28;20482;-90
2022/03/27 12:00:09;;;;;;;141.47;71.27;;;;;;;;;;5103372;28;20631;-93
2022/03/27 12:02:40;;;;;;;141.47;72.40;;;;;;;;;;5102532;28;20456;-92
2022/03/27 12:05:07;;;;;;;141.60;73.60;;;;;;;;;;5103897;28;21011;-89
2022/03/27 12:07:48;;;;;;;139.40;72.80;;;;;;;;;;5121893;28;20482;-92
2022/03/27 12:10:15;;;;;;;140.33;71.73;;;;;;;;;;5110429;28;20472;-89
2022/03/27 12:12:56;;;;;;;149.93;73.13;;;;;;;;;;5105285;28;20436;-94
2022/03/27 12:15:23;;;;;;;150.93;73.00;;;;;;;;;;5103062;28;21339;-94
2022/03/27 12:17:49;;;;;;;144.33;72.00;;;;;;;;;;5103626;28;20992;-88
2022/03/27 12:20:16;;;;;;;143.07;71.03;;;;;;;;;;5105130;28;20807;-91
2022/03/27 12:22:43;;;;;;;143.57;72.67;;;;;;;;;;5105982;28;20456;-90
2022/03/27 12:25:20;;;;;;;142.20;71.37;;;;;;;;;;5116487;28;20512;-91
2022/03/27 12:30:35;;;;;;;142.70;73.17;;;;;;;;;;5107941;28;20457;-90
2022/03/27 12:33:02;;;;;;;140.07;71.70;;;;;;;;;;5105890;28;20976;-89
2022/03/27 12:35:29;;;;;;;142.37;71.47;;;;;;;;;;5105866;28;20483;-91
2022/03/27 12:37:55;;;;;;;138.37;72.00;;;;;;;;;;5105527;28;21176;-90
2022/03/27 12:40:22;;;;;;;140.77;72.70;;;;;;;;;;5105197;28;20465;-89
2022/03/27 12:42:49;;;;;;;146.10;73.60;;;;;;;;;;5124044;28;20834;-90
2022/03/27 12:45:17;;;;;;;139.90;71.57;;;;;;;;;;5112049;28;20437;-88
2022/03/27 12:47:46;;;;;;;140.67;70.93;;;;;;;;;;5105339;28;20486;-92
2022/03/27 12:50:14;;;;;;;146.87;75.53;;;;;;;;;;5104893;28;20478;-89
2022/03/27 12:52:47;;;;;;;145.13;74.00;;;;;;;;;;5104915;28;20448;-90
2022/03/27 12:55:14;;;;;;;139.90;72.87;;;;;;;;;;5105563;28;20437;-89
2022/03/27 12:57:53;;;;;;;144.57;71.73;;;;;;;;;;5105163;28;20497;-94
2022/03/27 13:00:21;;;;;;;147.30;74.07;;;;;;;;;;5105376;28;20540;-91
2022/03/27 13:02:49;;;;;;;141.17;71.83;;;;;;;;;;5104956;28;20456;-90
2022/03/27 13:05:16;;;;;;;144.50;73.80;;;;;;;;;;5103798;28;20437;-90
2022/03/27 13:07:56;;;;;;;146.73;74.93;;;;;;;;;;5104120;28;20452;-92
2022/03/27 13:10:24;;;;;;;142.50;74.60;;;;;;;;;;5104731;28;20448;-90
2022/03/27 13:12:57;;;;;;;144.80;73.23;;;;;;;;;;5104922;28;20471;-89
2022/03/27 13:15:40;;;;;;;141.90;72.80;;;;;;;;;;5109351;28;20504;-92
2022/03/27 13:18:10;;;;;;;148.83;72.03;;;;;;;;;;5104619;28;20500;-90
2022/03/27 13:20:36;;;;;;;142.70;75.10;;;;;;;;;;5104892;28;20466;-91
2022/03/27 13:23:03;;;;;;;146.17;74.60;;;;;;;;;;5105278;28;20445;-91
2022/03/27 13:25:30;;;;;;;143.03;73.87;;;;;;;;;;5105177;28;20447;-90
2022/03/27 13:27:56;;;;;;;146.20;75.87;;;;;;;;;;5104891;28;20472;-90
2022/03/27 13:30:23;;;;;;;148.03;73.33;;;;;;;;;;5106315;28;20468;-89
2022/03/27 13:32:50;;;;;;;142.50;72.77;;;;;;;;;;5124337;28;20453;-89
2022/03/27 13:35:20;;;;;;;143.87;73.87;;;;;;;;;;5112719;28;20505;-95
2022/03/27 13:37:47;;;;;;;143.67;72.97;;;;;;;;;;5103256;28;20842;-87
2022/03/27 13:40:14;;;;;;;142.17;72.83;;;;;;;;;;5104561;28;20460;-89
2022/03/27 13:42:57;;;;;;;147.67;73.13;;;;;;;;;;5103731;28;20493;-89
2022/03/27 13:45:24;;;;;;;139.77;71.47;;;;;;;;;;5103870;28;20453;-89
2022/03/27 13:47:50;;;;;;;149.40;77.60;;;;;;;;;;5117691;28;20543;-89
2022/03/27 13:50:18;;;;;;;150.80;79.17;;;;;;;;;;5104337;28;20476;-88
2022/03/27 13:52:45;;;;;;;149.93;76.80;;;;;;;;;;5096544;28;20440;-92
2022/03/27 13:55:11;;;;;;;144.17;72.13;;;;;;;;;;5098850;28;20532;-90
2022/03/27 13:57:38;;;;;;;148.30;72.93;;;;;;;;;;5102153;28;20472;-90
2022/03/27 14:00:05;;;;;;;143.87;74.03;;;;;;;;;;5102922;28;20447;-91
2022/03/27 14:02:31;;;;;;;140.73;73.00;;;;;;;;;;5103155;28;20527;-92
2022/03/27 14:04:58;;;;;;;142.57;74.47;;;;;;;;;;5113468;28;20518;-91
2022/03/27 14:07:26;;;;;;;140.50;71.47;;;;;;;;;;5100414;28;20446;-94
2022/03/27 14:09:52;;;;;;;142.10;73.00;;;;;;;;;;5101315;28;20439;-93
2022/03/27 14:12:19;;;;;;;142.00;73.10;;;;;;;;;;5102339;28;20482;-92
2022/03/27 14:14:45;;;;;;;140.47;74.13;;;;;;;;;;5103227;28;20440;-89
2022/03/27 14:17:12;;;;;;;138.20;71.03;;;;;;;;;;5084150;28;20457;-90
2022/03/27 14:19:38;;;;;;;138.90;72.67;;;;;;;;;;5104654;28;20466;-91
2022/03/27 14:22:05;;;;;;;147.50;73.60;;;;;;;;;;5104347;28;20453;-93